sensor_id;sensor_type;location;lat;lon;timestamp;temperature;humidity
29539;DHT22;16482;51.046;4.498;2023-02-03T00:00:11;23.20;36.30
29539;DHT22;16482;51.046;4.498;2023-02-03T00:02:39;23.20;36.30
29539;DHT22;16482;51.046;4.498;2023-02-03T00:05:14;23.20;36.30
29539;DHT22;16482;51.046;4.498;2023-02-03T00:07:40;23.20;36.40
29539;DHT22;16482;51.046;4.498;2023-02-03T00:10:11;23.20;36.40
29539;DHT22;16482;51.046;4.498;2023-02-03T00:12:39;23.20;36.40
29539;DHT22;16482;51.046;4.498;2023-02-03T00:15:08;23.20;36.40
29539;DHT22;16482;51.046;4.498;2023-02-03T00:17:42;23.20;36.40
29539;DHT22;16482;51.046;4.498;2023-02-03T00:20:08;23.20;36.30
29539;DHT22;16482;51.046;4.498;2023-02-03T00:22:42;23.20;36.30
29539;DHT22;16482;51.046;4.498;2023-02-03T00:25:08;23.20;36.40
29539;DHT22;16482;51.046;4.498;2023-02-03T00:27:43;23.20;36.30
29539;DHT22;16482;51.046;4.498;2023-02-03T00:30:12;23.20;36.30
29539;DHT22;16482;51.046;4.498;2023-02-03T00:32:40;23.20;36.40
29539;DHT22;16482;51.046;4.498;2023-02-03T00:35:14;23.20;36.40
29539;DHT22;16482;51.046;4.498;2023-02-03T00:37:42;23.10;36.40
29539;DHT22;16482;51.046;4.498;2023-02-03T00:40:11;23.20;36.40
29539;DHT22;16482;51.046;4.498;2023-02-03T00:42:40;23.20;36.40
29539;DHT22;16482;51.046;4.498;2023-02-03T00:45:08;23.10;36.30
29539;DHT22;16482;51.046;4.498;2023-02-03T00:47:43;23.10;36.30
29539;DHT22;16482;51.046;4.498;2023-02-03T00:50:12;23.10;36.50
29539;DHT22;16482;51.046;4.498;2023-02-03T00:52:40;23.10;36.50
29539;DHT22;16482;51.046;4.498;2023-02-03T00:55:15;23.10;36.50
29539;DHT22;16482;51.046;4.498;2023-02-03T00:57:41;23.10;36.50
29539;DHT22;16482;51.046;4.498;2023-02-03T01:00:14;23.10;36.60
29539;DHT22;16482;51.046;4.498;2023-02-03T01:02:40;23.10;36.40
29539;DHT22;16482;51.046;4.498;2023-02-03T01:05:15;23.10;36.50
29539;DHT22;16482;51.046;4.498;2023-02-03T01:07:41;23.10;36.50
29539;DHT22;16482;51.046;4.498;2023-02-03T01:10:10;23.10;36.50
29539;DHT22;16482;51.046;4.498;2023-02-03T01:12:39;23.10;36.50
29539;DHT22;16482;51.046;4.498;2023-02-03T01:15:07;23.10;36.50
29539;DHT22;16482;51.046;4.498;2023-02-03T01:17:44;23.10;36.50
29539;DHT22;16482;51.046;4.498;2023-02-03T01:20:11;23.10;36.60
29539;DHT22;16482;51.046;4.498;2023-02-03T01:22:40;23.00;36.50
29539;DHT22;16482;51.046;4.498;2023-02-03T01:25:09;23.10;36.60
29539;DHT22;16482;51.046;4.498;2023-02-03T01:27:43;23.00;36.50
29539;DHT22;16482;51.046;4.498;2023-02-03T01:30:10;23.00;37.30
29539;DHT22;16482;51.046;4.498;2023-02-03T01:32:43;23.00;36.70
29539;DHT22;16482;51.046;4.498;2023-02-03T01:35:12;23.00;36.70
29539;DHT22;16482;51.046;4.498;2023-02-03T01:37:45;23.00;36.60
29539;DHT22;16482;51.046;4.498;2023-02-03T01:40:11;23.00;36.80
29539;DHT22;16482;51.046;4.498;2023-02-03T01:42:37;23.00;36.60
29539;DHT22;16482;51.046;4.498;2023-02-03T01:45:18;23.00;36.60
29539;DHT22;16482;51.046;4.498;2023-02-03T01:47:58;23.00;36.60
29539;DHT22;16482;51.046;4.498;2023-02-03T01:50:31;23.00;36.60
29539;DHT22;16482;51.046;4.498;2023-02-03T01:53:07;23.00;36.60
29539;DHT22;16482;51.046;4.498;2023-02-03T01:55:37;22.90;36.60
29539;DHT22;16482;51.046;4.498;2023-02-03T01:58:19;22.90;36.70
29539;DHT22;16482;51.046;4.498;2023-02-03T02:00:47;23.00;36.60
29539;DHT22;16482;51.046;4.498;2023-02-03T02:03:14;22.90;36.60
29539;DHT22;16482;51.046;4.498;2023-02-03T02:08:12;22.90;36.70
29539;DHT22;16482;51.046;4.498;2023-02-03T02:10:38;23.00;36.60
29539;DHT22;16482;51.046;4.498;2023-02-03T02:13:05;22.90;36.70
29539;DHT22;16482;51.046;4.498;2023-02-03T02:18:16;22.90;36.70
29539;DHT22;16482;51.046;4.498;2023-02-03T02:32:25;22.90;36.60
29539;DHT22;16482;51.046;4.498;2023-02-03T02:37:49;22.90;36.60
29539;DHT22;16482;51.046;4.498;2023-02-03T02:40:26;22.90;36.60
29539;DHT22;16482;51.046;4.498;2023-02-03T02:43:05;22.90;36.60
29539;DHT22;16482;51.046;4.498;2023-02-03T02:45:46;22.90;37.10
29539;DHT22;16482;51.046;4.498;2023-02-03T02:51:13;22.80;36.50
29539;DHT22;16482;51.046;4.498;2023-02-03T02:53:48;22.90;36.50
29539;DHT22;16482;51.046;4.498;2023-02-03T02:56:16;22.90;36.50
29539;DHT22;16482;51.046;4.498;2023-02-03T02:58:45;22.80;36.50
29539;DHT22;16482;51.046;4.498;2023-02-03T03:01:13;22.90;36.50
29539;DHT22;16482;51.046;4.498;2023-02-03T03:03:40;22.90;36.50
29539;DHT22;16482;51.046;4.498;2023-02-03T03:06:17;22.80;36.50
29539;DHT22;16482;51.046;4.498;2023-02-03T03:08:56;22.80;36.40
29539;DHT22;16482;51.046;4.498;2023-02-03T03:11:29;22.80;36.40
29539;DHT22;16482;51.046;4.498;2023-02-03T03:13:56;22.80;36.40
29539;DHT22;16482;51.046;4.498;2023-02-03T03:16:24;22.80;36.40
29539;DHT22;16482;51.046;4.498;2023-02-03T03:22:03;22.80;36.40
29539;DHT22;16482;51.046;4.498;2023-02-03T03:24:33;22.80;36.50
29539;DHT22;16482;51.046;4.498;2023-02-03T03:27:05;22.70;36.40
29539;DHT22;16482;51.046;4.498;2023-02-03T03:32:03;22.80;36.40
29539;DHT22;16482;51.046;4.498;2023-02-03T03:34:30;22.80;36.40
29539;DHT22;16482;51.046;4.498;2023-02-03T03:36:58;22.70;36.40
29539;DHT22;16482;51.046;4.498;2023-02-03T03:40:19;22.80;36.50
29539;DHT22;16482;51.046;4.498;2023-02-03T03:42:50;22.70;36.50
29539;DHT22;16482;51.046;4.498;2023-02-03T03:45:32;22.80;36.50
29539;DHT22;16482;51.046;4.498;2023-02-03T03:50:44;22.70;36.40
29539;DHT22;16482;51.046;4.498;2023-02-03T03:53:13;22.80;36.40
29539;DHT22;16482;51.046;4.498;2023-02-03T03:55:42;22.80;36.40
29539;DHT22;16482;51.046;4.498;2023-02-03T03:58:13;22.70;36.40
29539;DHT22;16482;51.046;4.498;2023-02-03T04:00:40;22.70;37.00
29539;DHT22;16482;51.046;4.498;2023-02-03T04:03:19;22.70;36.40
29539;DHT22;16482;51.046;4.498;2023-02-03T04:05:46;22.70;36.30
29539;DHT22;16482;51.046;4.498;2023-02-03T04:08:12;22.70;36.40
29539;DHT22;16482;51.046;4.498;2023-02-03T04:10:40;22.70;36.40
29539;DHT22;16482;51.046;4.498;2023-02-03T04:13:08;22.70;36.40
29539;DHT22;16482;51.046;4.498;2023-02-03T04:15:34;22.70;36.30
29539;DHT22;16482;51.046;4.498;2023-02-03T04:18:00;22.70;36.40
29539;DHT22;16482;51.046;4.498;2023-02-03T04:20:27;22.70;36.40
29539;DHT22;16482;51.046;4.498;2023-02-03T04:22:53;22.70;36.30
29539;DHT22;16482;51.046;4.498;2023-02-03T04:25:19;22.70;36.40
29539;DHT22;16482;51.046;4.498;2023-02-03T04:27:45;22.70;36.40
29539;DHT22;16482;51.046;4.498;2023-02-03T04:30:13;22.70;36.40
29539;DHT22;16482;51.046;4.498;2023-02-03T04:32:42;22.70;36.40
29539;DHT22;16482;51.046;4.498;2023-02-03T04:35:15;22.60;36.40
29539;DHT22;16482;51.046;4.498;2023-02-03T04:37:44;22.70;36.40
29539;DHT22;16482;51.046;4.498;2023-02-03T04:40:13;22.70;36.30
29539;DHT22;16482;51.046;4.498;2023-02-03T04:42:47;22.60;36.90
29539;DHT22;16482;51.046;4.498;2023-02-03T04:45:13;22.60;36.30
29539;DHT22;16482;51.046;4.498;2023-02-03T04:47:41;22.70;36.40
29539;DHT22;16482;51.046;4.498;2023-02-03T04:50:15;22.60;36.30
29539;DHT22;16482;51.046;4.498;2023-02-03T04:52:40;22.60;36.40
29539;DHT22;16482;51.046;4.498;2023-02-03T04:55:14;22.60;36.30
29539;DHT22;16482;51.046;4.498;2023-02-03T04:57:40;22.60;36.30
29539;DHT22;16482;51.046;4.498;2023-02-03T05:00:15;22.70;36.30
29539;DHT22;16482;51.046;4.498;2023-02-03T05:02:43;22.60;36.30
29539;DHT22;16482;51.046;4.498;2023-02-03T05:05:18;22.60;36.30
29539;DHT22;16482;51.046;4.498;2023-02-03T05:07:44;22.60;36.20
29539;DHT22;16482;51.046;4.498;2023-02-03T05:10:13;22.60;36.30
29539;DHT22;16482;51.046;4.498;2023-02-03T05:12:48;22.60;36.30
29539;DHT22;16482;51.046;4.498;2023-02-03T05:15:14;22.60;36.20
29539;DHT22;16482;51.046;4.498;2023-02-03T05:17:50;22.60;36.20
29539;DHT22;16482;51.046;4.498;2023-02-03T05:20:15;22.60;36.20
29539;DHT22;16482;51.046;4.498;2023-02-03T05:22:44;22.60;36.30
29539;DHT22;16482;51.046;4.498;2023-02-03T05:25:13;22.60;36.20
29539;DHT22;16482;51.046;4.498;2023-02-03T05:27:47;22.60;36.30
29539;DHT22;16482;51.046;4.498;2023-02-03T05:30:12;22.60;36.30
29539;DHT22;16482;51.046;4.498;2023-02-03T05:32:48;22.60;36.90
29539;DHT22;16482;51.046;4.498;2023-02-03T05:35:13;22.60;36.20
29539;DHT22;16482;51.046;4.498;2023-02-03T05:37:47;22.60;36.30
29539;DHT22;16482;51.046;4.498;2023-02-03T05:40:13;22.60;36.30
29539;DHT22;16482;51.046;4.498;2023-02-03T05:42:58;22.50;36.20
29539;DHT22;16482;51.046;4.498;2023-02-03T05:45:24;22.50;36.30
29539;DHT22;16482;51.046;4.498;2023-02-03T05:47:49;22.50;36.30
29539;DHT22;16482;51.046;4.498;2023-02-03T05:50:15;22.50;36.30
29539;DHT22;16482;51.046;4.498;2023-02-03T05:52:41;22.50;36.30
29539;DHT22;16482;51.046;4.498;2023-02-03T05:55:15;22.50;36.30
29539;DHT22;16482;51.046;4.498;2023-02-03T05:57:41;22.50;36.30
29539;DHT22;16482;51.046;4.498;2023-02-03T06:00:16;22.50;36.30
29539;DHT22;16482;51.046;4.498;2023-02-03T06:02:45;22.50;36.20
29539;DHT22;16482;51.046;4.498;2023-02-03T06:05:13;22.60;36.30
29539;DHT22;16482;51.046;4.498;2023-02-03T06:07:47;22.50;36.30
29539;DHT22;16482;51.046;4.498;2023-02-03T06:10:14;22.50;36.20
29539;DHT22;16482;51.046;4.498;2023-02-03T06:12:43;22.60;36.30
29539;DHT22;16482;51.046;4.498;2023-02-03T06:15:17;22.60;36.30
29539;DHT22;16482;51.046;4.498;2023-02-03T06:17:46;22.60;36.30
29539;DHT22;16482;51.046;4.498;2023-02-03T06:20:14;22.70;36.30
29539;DHT22;16482;51.046;4.498;2023-02-03T06:22:43;22.70;36.10
29539;DHT22;16482;51.046;4.498;2023-02-03T06:25:12;22.80;36.10
29539;DHT22;16482;51.046;4.498;2023-02-03T06:27:47;22.90;36.10
29539;DHT22;16482;51.046;4.498;2023-02-03T06:30:13;22.90;36.60
29539;DHT22;16482;51.046;4.498;2023-02-03T06:32:47;22.90;35.90
29539;DHT22;16482;51.046;4.498;2023-02-03T06:35:13;23.00;35.70
29539;DHT22;16482;51.046;4.498;2023-02-03T06:37:46;23.00;36.20
29539;DHT22;16482;51.046;4.498;2023-02-03T06:40:15;23.10;35.60
29539;DHT22;16482;51.046;4.498;2023-02-03T06:42:48;23.20;35.50
29539;DHT22;16482;51.046;4.498;2023-02-03T06:45:16;23.20;35.40
29539;DHT22;16482;51.046;4.498;2023-02-03T06:47:43;23.30;35.40
29539;DHT22;16482;51.046;4.498;2023-02-03T06:50:14;23.30;35.30
29539;DHT22;16482;51.046;4.498;2023-02-03T06:52:48;23.30;35.20
29539;DHT22;16482;51.046;4.498;2023-02-03T06:55:14;23.40;35.20
29539;DHT22;16482;51.046;4.498;2023-02-03T06:57:45;23.40;35.10
29539;DHT22;16482;51.046;4.498;2023-02-03T07:00:12;23.40;35.00
29539;DHT22;16482;51.046;4.498;2023-02-03T07:02:54;23.50;35.00
29539;DHT22;16482;51.046;4.498;2023-02-03T07:05:21;23.50;35.00
29539;DHT22;16482;51.046;4.498;2023-02-03T07:07:47;23.50;34.80
29539;DHT22;16482;51.046;4.498;2023-02-03T07:10:14;23.50;34.80
29539;DHT22;16482;51.046;4.498;2023-02-03T07:12:47;23.50;34.80
29539;DHT22;16482;51.046;4.498;2023-02-03T07:15:15;23.60;34.80
29539;DHT22;16482;51.046;4.498;2023-02-03T07:17:43;23.60;34.70
29539;DHT22;16482;51.046;4.498;2023-02-03T07:20:16;23.50;34.60
29539;DHT22;16482;51.046;4.498;2023-02-03T07:22:44;23.60;34.70
29539;DHT22;16482;51.046;4.498;2023-02-03T07:25:15;23.60;34.70
29539;DHT22;16482;51.046;4.498;2023-02-03T07:27:41;23.50;34.60
29539;DHT22;16482;51.046;4.498;2023-02-03T07:30:16;23.60;34.70
29539;DHT22;16482;51.046;4.498;2023-02-03T07:32:49;23.60;34.70
29539;DHT22;16482;51.046;4.498;2023-02-03T07:35:15;23.60;34.60
29539;DHT22;16482;51.046;4.498;2023-02-03T07:37:44;23.60;34.60
29539;DHT22;16482;51.046;4.498;2023-02-03T07:40:14;23.60;34.60
29539;DHT22;16482;51.046;4.498;2023-02-03T07:42:44;23.60;35.20
29539;DHT22;16482;51.046;4.498;2023-02-03T07:45:11;23.60;34.60
29539;DHT22;16482;51.046;4.498;2023-02-03T07:47:45;23.60;34.60
29539;DHT22;16482;51.046;4.498;2023-02-03T07:50:18;23.60;34.60
29539;DHT22;16482;51.046;4.498;2023-02-03T07:52:44;23.60;34.70
29539;DHT22;16482;51.046;4.498;2023-02-03T07:55:12;23.60;34.70
29539;DHT22;16482;51.046;4.498;2023-02-03T07:57:46;23.60;34.70
29539;DHT22;16482;51.046;4.498;2023-02-03T08:00:15;23.60;34.70
29539;DHT22;16482;51.046;4.498;2023-02-03T08:02:43;23.60;34.60
29539;DHT22;16482;51.046;4.498;2023-02-03T08:05:17;23.60;34.70
29539;DHT22;16482;51.046;4.498;2023-02-03T08:07:46;23.60;34.70
29539;DHT22;16482;51.046;4.498;2023-02-03T08:10:15;23.60;34.70
29539;DHT22;16482;51.046;4.498;2023-02-03T08:12:44;23.60;34.70
29539;DHT22;16482;51.046;4.498;2023-02-03T08:15:14;23.60;34.70
29539;DHT22;16482;51.046;4.498;2023-02-03T08:17:48;23.60;34.70
29539;DHT22;16482;51.046;4.498;2023-02-03T08:20:14;23.60;34.70
29539;DHT22;16482;51.046;4.498;2023-02-03T08:22:43;23.60;34.70
29539;DHT22;16482;51.046;4.498;2023-02-03T08:25:17;23.50;34.80
29539;DHT22;16482;51.046;4.498;2023-02-03T08:27:45;23.60;34.90
29539;DHT22;16482;51.046;4.498;2023-02-03T08:30:14;23.50;35.00
29539;DHT22;16482;51.046;4.498;2023-02-03T08:32:47;23.50;34.90
29539;DHT22;16482;51.046;4.498;2023-02-03T08:35:13;23.50;34.90
29539;DHT22;16482;51.046;4.498;2023-02-03T08:37:42;23.50;35.00
29539;DHT22;16482;51.046;4.498;2023-02-03T08:40:17;23.50;35.10
29539;DHT22;16482;51.046;4.498;2023-02-03T08:42:42;23.40;35.10
29539;DHT22;16482;51.046;4.498;2023-02-03T08:45:16;23.40;35.10
29539;DHT22;16482;51.046;4.498;2023-02-03T08:47:44;23.40;35.20
29539;DHT22;16482;51.046;4.498;2023-02-03T08:50:13;23.40;35.20
29539;DHT22;16482;51.046;4.498;2023-02-03T08:52:46;23.40;35.20
29539;DHT22;16482;51.046;4.498;2023-02-03T08:55:12;23.30;35.20
29539;DHT22;16482;51.046;4.498;2023-02-03T08:57:41;23.30;35.30
29539;DHT22;16482;51.046;4.498;2023-02-03T09:00:13;23.30;35.30
29539;DHT22;16482;51.046;4.498;2023-02-03T09:02:46;23.30;35.30
29539;DHT22;16482;51.046;4.498;2023-02-03T09:05:15;23.30;35.40
29539;DHT22;16482;51.046;4.498;2023-02-03T09:07:45;23.20;35.40
29539;DHT22;16482;51.046;4.498;2023-02-03T09:10:14;23.20;36.00
29539;DHT22;16482;51.046;4.498;2023-02-03T09:12:49;23.30;35.50
29539;DHT22;16482;51.046;4.498;2023-02-03T09:15:15;23.30;35.50
29539;DHT22;16482;51.046;4.498;2023-02-03T09:17:43;23.30;35.50
29539;DHT22;16482;51.046;4.498;2023-02-03T09:20:18;23.30;35.50
29539;DHT22;16482;51.046;4.498;2023-02-03T09:22:44;23.30;35.50
29539;DHT22;16482;51.046;4.498;2023-02-03T09:25:09;23.30;35.50
29539;DHT22;16482;51.046;4.498;2023-02-03T09:27:53;23.20;35.50
29539;DHT22;16482;51.046;4.498;2023-02-03T09:30:18;23.20;35.60
29539;DHT22;16482;51.046;4.498;2023-02-03T09:32:44;23.20;35.70
29539;DHT22;16482;51.046;4.498;2023-02-03T09:35:19;23.10;35.70
29539;DHT22;16482;51.046;4.498;2023-02-03T09:37:45;23.10;35.90
29539;DHT22;16482;51.046;4.498;2023-02-03T09:40:34;23.10;35.80
29539;DHT22;16482;51.046;4.498;2023-02-03T09:43:09;23.20;35.70
29539;DHT22;16482;51.046;4.498;2023-02-03T09:45:37;23.20;35.80
29539;DHT22;16482;51.046;4.498;2023-02-03T09:48:16;23.20;35.80
29539;DHT22;16482;51.046;4.498;2023-02-03T09:50:43;23.30;35.90
29539;DHT22;16482;51.046;4.498;2023-02-03T09:53:41;23.30;35.90
29539;DHT22;16482;51.046;4.498;2023-02-03T09:56:30;23.30;35.90
29539;DHT22;16482;51.046;4.498;2023-02-03T09:58:57;23.30;35.90
29539;DHT22;16482;51.046;4.498;2023-02-03T10:01:33;23.30;36.10
29539;DHT22;16482;51.046;4.498;2023-02-03T10:04:25;23.30;36.10
29539;DHT22;16482;51.046;4.498;2023-02-03T10:07:06;23.20;36.10
29539;DHT22;16482;51.046;4.498;2023-02-03T10:18:49;23.20;36.40
29539;DHT22;16482;51.046;4.498;2023-02-03T10:24:42;23.20;36.50
29539;DHT22;16482;51.046;4.498;2023-02-03T10:27:17;23.20;36.40
29539;DHT22;16482;51.046;4.498;2023-02-03T10:29:43;23.20;36.50
29539;DHT22;16482;51.046;4.498;2023-02-03T10:32:11;23.20;36.40
29539;DHT22;16482;51.046;4.498;2023-02-03T10:34:38;23.20;36.50
29539;DHT22;16482;51.046;4.498;2023-02-03T10:37:26;23.20;36.50
29539;DHT22;16482;51.046;4.498;2023-02-03T10:39:55;23.20;36.50
29539;DHT22;16482;51.046;4.498;2023-02-03T10:42:21;23.20;36.60
29539;DHT22;16482;51.046;4.498;2023-02-03T10:44:56;23.20;36.60
29539;DHT22;16482;51.046;4.498;2023-02-03T10:47:34;23.10;36.60
29539;DHT22;16482;51.046;4.498;2023-02-03T10:50:21;23.10;36.60
29539;DHT22;16482;51.046;4.498;2023-02-03T10:52:47;23.10;36.60
29539;DHT22;16482;51.046;4.498;2023-02-03T10:57:52;23.10;36.80
29539;DHT22;16482;51.046;4.498;2023-02-03T11:00:30;23.00;36.80
29539;DHT22;16482;51.046;4.498;2023-02-03T11:06:16;23.10;36.80
29539;DHT22;16482;51.046;4.498;2023-02-03T11:08:45;23.00;36.90
29539;DHT22;16482;51.046;4.498;2023-02-03T11:11:30;23.00;36.90
29539;DHT22;16482;51.046;4.498;2023-02-03T11:16:32;23.00;37.10
29539;DHT22;16482;51.046;4.498;2023-02-03T11:19:14;23.00;37.10
29539;DHT22;16482;51.046;4.498;2023-02-03T11:21:45;23.00;37.20
29539;DHT22;16482;51.046;4.498;2023-02-03T11:24:31;23.00;37.20
29539;DHT22;16482;51.046;4.498;2023-02-03T11:27:15;23.00;37.20
29539;DHT22;16482;51.046;4.498;2023-02-03T11:29:48;23.00;37.20
29539;DHT22;16482;51.046;4.498;2023-02-03T11:32:44;22.90;37.30
29539;DHT22;16482;51.046;4.498;2023-02-03T11:35:20;22.90;37.30
29539;DHT22;16482;51.046;4.498;2023-02-03T11:37:51;23.00;37.40
29539;DHT22;16482;51.046;4.498;2023-02-03T11:45:36;22.90;37.30
29539;DHT22;16482;51.046;4.498;2023-02-03T11:57:42;22.90;37.40
29539;DHT22;16482;51.046;4.498;2023-02-03T12:00:24;22.90;37.40
29539;DHT22;16482;51.046;4.498;2023-02-03T12:05:57;22.80;37.40
29539;DHT22;16482;51.046;4.498;2023-02-03T12:11:37;22.90;37.50
29539;DHT22;16482;51.046;4.498;2023-02-03T12:14:46;22.90;37.50
29539;DHT22;16482;51.046;4.498;2023-02-03T12:28:25;22.80;37.50
29539;DHT22;16482;51.046;4.498;2023-02-03T12:31:12;22.80;37.60
29539;DHT22;16482;51.046;4.498;2023-02-03T12:33:46;22.80;37.50
29539;DHT22;16482;51.046;4.498;2023-02-03T12:36:22;22.80;37.60
29539;DHT22;16482;51.046;4.498;2023-02-03T12:38:57;22.80;37.60
29539;DHT22;16482;51.046;4.498;2023-02-03T12:41:57;22.80;37.60
29539;DHT22;16482;51.046;4.498;2023-02-03T12:44:49;22.80;37.60
29539;DHT22;16482;51.046;4.498;2023-02-03T12:49:53;22.80;37.60
29539;DHT22;16482;51.046;4.498;2023-02-03T12:52:29;22.80;37.70
29539;DHT22;16482;51.046;4.498;2023-02-03T13:08:38;22.80;38.10
29539;DHT22;16482;51.046;4.498;2023-02-03T13:14:04;22.90;38.60
29539;DHT22;16482;51.046;4.498;2023-02-03T13:16:35;22.80;38.60
29539;DHT22;16482;51.046;4.498;2023-02-03T13:19:05;22.80;38.70
29539;DHT22;16482;51.046;4.498;2023-02-03T13:21:32;22.80;38.80
29539;DHT22;16482;51.046;4.498;2023-02-03T13:23:58;22.80;38.90
29539;DHT22;16482;51.046;4.498;2023-02-03T13:38:42;22.80;39.00
29539;DHT22;16482;51.046;4.498;2023-02-03T13:43:50;22.80;39.10
29539;DHT22;16482;51.046;4.498;2023-02-03T13:46:23;22.80;39.00
29539;DHT22;16482;51.046;4.498;2023-02-03T13:48:52;22.80;39.10
29539;DHT22;16482;51.046;4.498;2023-02-03T13:51:25;22.80;39.10
29539;DHT22;16482;51.046;4.498;2023-02-03T13:54:03;22.80;39.00
29539;DHT22;16482;51.046;4.498;2023-02-03T13:56:30;22.80;39.10
29539;DHT22;16482;51.046;4.498;2023-02-03T14:01:40;22.80;39.00
29539;DHT22;16482;51.046;4.498;2023-02-03T14:04:08;22.80;39.00
29539;DHT22;16482;51.046;4.498;2023-02-03T14:06:56;22.80;39.00
29539;DHT22;16482;51.046;4.498;2023-02-03T14:09:33;22.80;39.00
29539;DHT22;16482;51.046;4.498;2023-02-03T14:12:30;22.80;39.00
29539;DHT22;16482;51.046;4.498;2023-02-03T14:14:59;22.80;39.00
29539;DHT22;16482;51.046;4.498;2023-02-03T14:23:08;22.80;39.10
29539;DHT22;16482;51.046;4.498;2023-02-03T14:25:43;22.80;39.00
29539;DHT22;16482;51.046;4.498;2023-02-03T14:28:18;22.80;39.00
29539;DHT22;16482;51.046;4.498;2023-02-03T14:31:12;22.80;39.00
29539;DHT22;16482;51.046;4.498;2023-02-03T14:33:48;22.80;39.00
29539;DHT22;16482;51.046;4.498;2023-02-03T14:36:31;22.70;38.90
29539;DHT22;16482;51.046;4.498;2023-02-03T14:39:03;22.90;39.00
29539;DHT22;16482;51.046;4.498;2023-02-03T14:46:58;22.80;38.80
29539;DHT22;16482;51.046;4.498;2023-02-03T14:52:45;22.70;38.90
29539;DHT22;16482;51.046;4.498;2023-02-03T14:55:27;22.70;38.90
29539;DHT22;16482;51.046;4.498;2023-02-03T14:58:00;22.70;38.90
29539;DHT22;16482;51.046;4.498;2023-02-03T15:00:31;22.70;38.90
29539;DHT22;16482;51.046;4.498;2023-02-03T15:08:47;22.70;38.90
29539;DHT22;16482;51.046;4.498;2023-02-03T15:11:32;22.70;38.90
29539;DHT22;16482;51.046;4.498;2023-02-03T15:14:16;22.70;38.90
29539;DHT22;16482;51.046;4.498;2023-02-03T15:17:12;22.80;38.90
29539;DHT22;16482;51.046;4.498;2023-02-03T15:19:43;22.70;38.90
29539;DHT22;16482;51.046;4.498;2023-02-03T15:22:24;22.70;38.80
29539;DHT22;16482;51.046;4.498;2023-02-03T15:24:54;22.80;38.70
29539;DHT22;16482;51.046;4.498;2023-02-03T15:27:25;22.70;38.70
29539;DHT22;16482;51.046;4.498;2023-02-03T15:29:52;22.80;38.80
29539;DHT22;16482;51.046;4.498;2023-02-03T15:32:32;22.70;38.70
29539;DHT22;16482;51.046;4.498;2023-02-03T15:35:00;22.80;38.70
29539;DHT22;16482;51.046;4.498;2023-02-03T15:40:17;22.80;38.50
29539;DHT22;16482;51.046;4.498;2023-02-03T15:48:41;22.90;38.40
29539;DHT22;16482;51.046;4.498;2023-02-03T15:51:26;23.00;38.30
29539;DHT22;16482;51.046;4.498;2023-02-03T15:54:00;23.10;38.20
29539;DHT22;16482;51.046;4.498;2023-02-03T15:56:37;23.10;38.10
29539;DHT22;16482;51.046;4.498;2023-02-03T15:59:33;23.20;37.90
29539;DHT22;16482;51.046;4.498;2023-02-03T16:02:05;23.20;37.70
29539;DHT22;16482;51.046;4.498;2023-02-03T16:04:32;23.30;37.70
29539;DHT22;16482;51.046;4.498;2023-02-03T16:06:58;23.30;37.60
29539;DHT22;16482;51.046;4.498;2023-02-03T16:14:42;23.50;37.20
29539;DHT22;16482;51.046;4.498;2023-02-03T16:17:24;23.60;37.10
29539;DHT22;16482;51.046;4.498;2023-02-03T16:20:05;23.60;37.00
29539;DHT22;16482;51.046;4.498;2023-02-03T16:23:16;23.60;36.90
29539;DHT22;16482;51.046;4.498;2023-02-03T16:26:21;23.60;36.80
29539;DHT22;16482;51.046;4.498;2023-02-03T16:31:55;23.60;36.80
29539;DHT22;16482;51.046;4.498;2023-02-03T16:34:39;23.60;36.80
29539;DHT22;16482;51.046;4.498;2023-02-03T16:37:30;23.70;36.80
29539;DHT22;16482;51.046;4.498;2023-02-03T16:40:19;23.70;36.80
29539;DHT22;16482;51.046;4.498;2023-02-03T16:43:09;23.70;36.70
29539;DHT22;16482;51.046;4.498;2023-02-03T16:45:56;23.60;36.70
29539;DHT22;16482;51.046;4.498;2023-02-03T16:48:40;23.70;36.70
29539;DHT22;16482;51.046;4.498;2023-02-03T16:51:26;23.70;36.70
29539;DHT22;16482;51.046;4.498;2023-02-03T16:53:53;23.70;37.30
29539;DHT22;16482;51.046;4.498;2023-02-03T16:56:19;23.70;36.70
29539;DHT22;16482;51.046;4.498;2023-02-03T16:58:45;23.70;36.70
29539;DHT22;16482;51.046;4.498;2023-02-03T17:01:11;23.70;36.70
29539;DHT22;16482;51.046;4.498;2023-02-03T17:03:37;23.70;36.70
29539;DHT22;16482;51.046;4.498;2023-02-03T17:06:09;23.70;36.60
29539;DHT22;16482;51.046;4.498;2023-02-03T17:08:36;23.80;36.60
29539;DHT22;16482;51.046;4.498;2023-02-03T17:11:13;23.70;36.70
29539;DHT22;16482;51.046;4.498;2023-02-03T17:13:40;23.70;36.80
29539;DHT22;16482;51.046;4.498;2023-02-03T17:16:19;23.70;36.80
29539;DHT22;16482;51.046;4.498;2023-02-03T17:18:47;23.70;36.80
29539;DHT22;16482;51.046;4.498;2023-02-03T17:21:25;23.70;36.80
29539;DHT22;16482;51.046;4.498;2023-02-03T17:23:51;23.70;37.00
29539;DHT22;16482;51.046;4.498;2023-02-03T17:26:17;23.80;36.90
29539;DHT22;16482;51.046;4.498;2023-02-03T17:28:43;23.80;36.90
29539;DHT22;16482;51.046;4.498;2023-02-03T17:31:19;23.80;36.90
29539;DHT22;16482;51.046;4.498;2023-02-03T17:33:49;23.80;36.80
29539;DHT22;16482;51.046;4.498;2023-02-03T17:36:17;23.80;36.90
29539;DHT22;16482;51.046;4.498;2023-02-03T17:38:52;23.80;36.80
29539;DHT22;16482;51.046;4.498;2023-02-03T17:41:21;23.80;36.80
29539;DHT22;16482;51.046;4.498;2023-02-03T17:43:48;23.80;36.90
29539;DHT22;16482;51.046;4.498;2023-02-03T17:46:19;23.80;36.90
29539;DHT22;16482;51.046;4.498;2023-02-03T17:48:46;23.80;36.70
29539;DHT22;16482;51.046;4.498;2023-02-03T17:51:14;23.80;36.80
29539;DHT22;16482;51.046;4.498;2023-02-03T17:53:43;23.80;36.70
29539;DHT22;16482;51.046;4.498;2023-02-03T17:56:14;23.70;36.60
29539;DHT22;16482;51.046;4.498;2023-02-03T17:58:41;23.80;36.70
29539;DHT22;16482;51.046;4.498;2023-02-03T18:01:12;23.80;36.70
29539;DHT22;16482;51.046;4.498;2023-02-03T18:03:43;23.80;36.80
29539;DHT22;16482;51.046;4.498;2023-02-03T18:06:09;23.80;36.70
29539;DHT22;16482;51.046;4.498;2023-02-03T18:08:35;23.80;36.70
29539;DHT22;16482;51.046;4.498;2023-02-03T18:11:06;23.80;36.80
29539;DHT22;16482;51.046;4.498;2023-02-03T18:13:36;23.80;36.80
29539;DHT22;16482;51.046;4.498;2023-02-03T18:16:06;23.80;36.70
29539;DHT22;16482;51.046;4.498;2023-02-03T18:18:33;23.80;36.70
29539;DHT22;16482;51.046;4.498;2023-02-03T18:21:06;23.70;36.70
29539;DHT22;16482;51.046;4.498;2023-02-03T18:23:32;23.70;36.70
29539;DHT22;16482;51.046;4.498;2023-02-03T18:26:08;23.70;36.80
29539;DHT22;16482;51.046;4.498;2023-02-03T18:28:34;23.70;36.80
29539;DHT22;16482;51.046;4.498;2023-02-03T18:31:09;23.70;36.80
29539;DHT22;16482;51.046;4.498;2023-02-03T18:33:35;23.80;36.80
29539;DHT22;16482;51.046;4.498;2023-02-03T18:36:05;23.70;36.80
29539;DHT22;16482;51.046;4.498;2023-02-03T18:38:40;23.80;36.90